Time;durP1;ratioP1;P1;durP2;ratioP2;P2;SDS_P1;SDS_P2;PMS_P1;PMS_P2;Temp;Humidity;BMP_temperature;BMP_pressure;BME280_temperature;BME280_humidity;BME280_pressure;Samples;Min_cycle;Max_cycle;Signal;HPM_P1;HPM_P2
2021/11/01 00:00:41;;;;;;;12.32;2.17;;;10.60;94.20;;;;;;5011431;28;20468;-81
2021/11/01 00:03:07;;;;;;;17.50;1.98;;;10.60;94.00;;;;;;4995321;28;20409;-82
2021/11/01 00:05:33;;;;;;;9.23;1.48;;;10.50;94.00;;;;;;5013076;28;20479;-82
2021/11/01 00:07:59;;;;;;;10.55;1.80;;;10.40;94.10;;;;;;5012635;28;20376;-81
2021/11/01 00:10:24;;;;;;;14.82;1.90;;;10.60;93.90;;;;;;5013178;28;20380;-81
2021/11/01 00:12:50;;;;;;;13.50;1.65;;;10.50;94.00;;;;;;4995065;28;20480;-80
2021/11/01 00:15:16;;;;;;;11.00;1.85;;;10.60;93.80;;;;;;5013028;28;21232;-80
2021/11/01 00:17:41;;;;;;;18.75;1.80;;;10.50;93.60;;;;;;5012619;28;20389;-81
2021/11/01 00:20:09;;;;;;;11.43;2.40;;;10.50;93.80;;;;;;5012971;28;20438;-81
2021/11/01 00:22:35;;;;;;;10.57;2.10;;;10.50;93.90;;;;;;5012478;28;20817;-81
2021/11/01 00:25:03;;;;;;;13.90;1.92;;;10.40;93.60;;;;;;5012662;28;20470;-81
2021/11/01 00:27:29;;;;;;;11.30;1.80;;;10.50;93.70;;;;;;5012145;28;20877;-80
2021/11/01 00:29:55;;;;;;;12.68;2.22;;;10.40;93.40;;;;;;5012320;28;20470;-82
2021/11/01 00:32:20;;;;;;;13.70;2.25;;;10.40;93.60;;;;;;4994884;28;20396;-82
2021/11/01 00:34:46;;;;;;;11.67;1.90;;;10.40;93.50;;;;;;5012428;28;20397;-80
2021/11/01 00:37:11;;;;;;;10.30;1.87;;;10.30;93.30;;;;;;5012683;28;20388;-82
2021/11/01 00:39:37;;;;;;;9.37;1.80;;;10.20;93.40;;;;;;4994879;28;20385;-80
2021/11/01 00:42:05;;;;;;;13.00;1.70;;;10.10;93.70;;;;;;5012281;28;20392;-79
2021/11/01 00:44:31;;;;;;;16.30;2.28;;;10.10;93.50;;;;;;5011950;28;20381;-79
2021/11/01 00:46:58;;;;;;;8.15;1.75;;;10.10;93.70;;;;;;4994844;28;20447;-79
2021/11/01 00:49:25;;;;;;;9.48;1.90;;;10.10;93.70;;;;;;5011999;28;20503;-79
2021/11/01 00:51:53;;;;;;;15.30;1.85;;;10.00;93.30;;;;;;5012375;28;20430;-80
2021/11/01 00:54:19;;;;;;;13.40;1.75;;;10.00;93.00;;;;;;5010578;28;20746;-80
2021/11/01 00:56:44;;;;;;;12.63;1.57;;;10.20;93.00;;;;;;5012116;28;20389;-80
2021/11/01 00:59:10;;;;;;;12.23;1.75;;;10.20;93.00;;;;;;5010997;28;20389;-80
2021/11/01 01:01:35;;;;;;;13.50;3.07;;;10.10;93.00;;;;;;5012272;28;20392;-80
2021/11/01 01:04:01;;;;;;;9.63;1.73;;;10.10;93.10;;;;;;5011988;28;20759;-80
2021/11/01 01:06:27;;;;;;;13.32;1.83;;;10.10;93.20;;;;;;5011779;28;20409;-80
2021/11/01 01:08:54;;;;;;;12.85;2.35;;;10.00;93.20;;;;;;4994080;28;20395;-80
2021/11/01 01:11:20;;;;;;;6.93;1.40;;;10.00;93.00;;;;;;4994084;28;20846;-80
2021/11/01 01:13:46;;;;;;;8.10;2.08;;;10.00;92.80;;;;;;5010117;28;20385;-79
2021/11/01 01:18:38;;;;;;;15.80;1.50;;;10.00;92.80;;;;;;5011980;28;20396;-80
2021/11/01 01:23:50;;;;;;;10.40;1.67;;;10.00;92.60;;;;;;5012009;28;20423;-80
2021/11/01 01:26:16;;;;;;;18.48;2.10;;;9.90;92.70;;;;;;5011382;28;20441;-80
2021/11/01 01:28:43;;;;;;;13.18;1.55;;;9.80;92.80;;;;;;4993643;28;20412;-80
2021/11/01 01:31:09;;;;;;;12.50;1.77;;;9.90;93.00;;;;;;5009165;28;20403;-80
2021/11/01 01:33:34;;;;;;;8.25;1.65;;;9.90;92.60;;;;;;5011505;28;20392;-80
2021/11/01 01:36:00;;;;;;;9.20;1.70;;;9.90;92.30;;;;;;4994206;28;20385;-79
2021/11/01 01:38:26;;;;;;;9.70;1.63;;;9.80;92.60;;;;;;5011577;28;20403;-79
2021/11/01 01:40:55;;;;;;;11.13;1.38;;;9.90;92.90;;;;;;5011216;28;20857;-80
2021/11/01 01:43:22;;;;;;;6.28;1.42;;;9.80;92.70;;;;;;5011190;28;20381;-80
2021/11/01 01:45:47;;;;;;;17.13;2.03;;;9.90;92.60;;;;;;5011335;28;20417;-79
2021/11/01 01:48:13;;;;;;;7.70;2.20;;;9.90;92.90;;;;;;5011082;28;20778;-80
2021/11/01 01:50:40;;;;;;;16.05;1.63;;;9.80;92.60;;;;;;5011627;28;20439;-80
2021/11/01 01:53:06;;;;;;;6.37;1.97;;;9.80;92.80;;;;;;5010872;28;20750;-80
2021/11/01 01:55:34;;;;;;;9.00;1.85;;;9.70;92.70;;;;;;5011283;28;20416;-80
2021/11/01 01:58:00;;;;;;;8.93;1.60;;;9.90;92.70;;;;;;4993780;28;20480;-80
2021/11/01 02:00:46;;;;;;;6.60;1.55;;;9.80;92.70;;;;;;5011437;28;20404;-80
2021/11/01 02:03:12;;;;;;;5.65;1.48;;;9.80;92.40;;;;;;5011175;28;20684;-79
2021/11/01 02:05:45;;;;;;;10.40;1.85;;;9.80;92.30;;;;;;5011138;28;20381;-81
2021/11/01 02:08:13;;;;;;;8.85;1.45;;;9.80;92.40;;;;;;5011279;28;20388;-80
2021/11/01 02:10:46;;;;;;;10.45;1.88;;;9.80;92.60;;;;;;4995187;28;20395;-80
2021/11/01 02:13:20;;;;;;;7.72;1.48;;;9.90;92.60;;;;;;5015000;28;20392;-80
2021/11/01 02:15:52;;;;;;;6.95;1.63;;;9.70;92.50;;;;;;4997447;28;20958;-80
2021/11/01 02:18:19;;;;;;;12.23;1.35;;;9.80;92.20;;;;;;4997018;28;20400;-80
2021/11/01 02:21:03;;;;;;;10.77;1.63;;;9.70;92.20;;;;;;5015230;28;20407;-80
2021/11/01 02:23:55;;;;;;;14.15;2.42;;;9.70;92.10;;;;;;5014571;28;20388;-80
2021/11/01 02:26:23;;;;;;;11.15;1.33;;;9.80;91.70;;;;;;5014949;28;20412;-81
2021/11/01 02:28:50;;;;;;;13.25;1.83;;;9.80;91.80;;;;;;5013049;28;20873;-81
2021/11/01 02:31:19;;;;;;;9.45;1.23;;;9.80;92.30;;;;;;4997367;28;20389;-80
2021/11/01 02:33:48;;;;;;;17.63;1.60;;;9.90;91.90;;;;;;5014555;28;20389;-80
2021/11/01 02:36:13;;;;;;;5.70;1.20;;;9.70;91.80;;;;;;5014694;28;20567;-80
2021/11/01 02:38:39;;;;;;;8.87;1.37;;;9.70;91.70;;;;;;4996852;28;20410;-80
2021/11/01 02:41:24;;;;;;;8.97;1.67;;;9.80;92.00;;;;;;4996796;28;20408;-80
2021/11/01 02:43:52;;;;;;;6.05;1.10;;;9.80;91.50;;;;;;5014349;28;20388;-80
2021/11/01 02:46:18;;;;;;;8.13;1.33;;;9.80;90.90;;;;;;5014279;28;20418;-80
2021/11/01 02:48:45;;;;;;;8.18;1.35;;;9.80;91.00;;;;;;4996979;28;20393;-79
2021/11/01 02:51:11;;;;;;;7.85;1.20;;;9.70;91.40;;;;;;5014281;28;20388;-79
2021/11/01 02:53:37;;;;;;;7.22;1.13;;;9.70;91.10;;;;;;5014621;28;20739;-79
2021/11/01 02:56:03;;;;;;;8.80;1.67;;;9.70;90.60;;;;;;5013870;28;20385;-80
2021/11/01 02:58:28;;;;;;;6.90;1.10;;;9.70;90.40;;;;;;5014431;28;20387;-79
2021/11/01 03:00:54;;;;;;;9.57;1.03;;;9.70;90.40;;;;;;5014386;28;20393;-80
2021/11/01 03:03:19;;;;;;;8.63;1.60;;;9.60;90.20;;;;;;5014400;28;20392;-80
2021/11/01 03:05:45;;;;;;;8.55;1.30;;;9.70;89.90;;;;;;5014190;28;20420;-80
2021/11/01 03:08:11;;;;;;;12.65;1.60;;;9.70;90.00;;;;;;4996739;28;20799;-80
2021/11/01 03:10:37;;;;;;;7.25;1.17;;;9.70;90.30;;;;;;5014123;28;20484;-80
2021/11/01 03:13:03;;;;;;;9.47;1.37;;;9.60;89.90;;;;;;5013988;28;20384;-80
2021/11/01 03:15:28;;;;;;;6.77;1.00;;;9.70;90.20;;;;;;5014053;28;20381;-80
2021/11/01 03:18:06;;;;;;;8.97;1.10;;;9.70;90.40;;;;;;5013702;28;20373;-80
2021/11/01 03:20:40;;;;;;;6.45;1.30;;;9.60;89.80;;;;;;5014177;28;20443;-80
2021/11/01 03:23:17;;;;;;;6.00;1.38;;;9.60;90.30;;;;;;4994822;28;20442;-80
2021/11/01 03:25:55;;;;;;;5.90;1.40;;;9.60;90.00;;;;;;5013650;28;20412;-80
2021/11/01 03:28:22;;;;;;;9.07;1.60;;;9.60;90.00;;;;;;5013557;28;20549;-80
2021/11/01 03:30:49;;;;;;;7.88;1.30;;;9.60;90.00;;;;;;5013929;28;20726;-80
2021/11/01 03:33:16;;;;;;;10.43;1.80;;;9.50;90.00;;;;;;5013340;28;20393;-80
2021/11/01 03:35:44;;;;;;;8.33;1.47;;;9.50;90.10;;;;;;5013874;28;20431;-79
2021/11/01 03:38:11;;;;;;;4.57;1.00;;;9.40;89.60;;;;;;5014185;28;20395;-79
2021/11/01 03:40:40;;;;;;;9.15;1.17;;;9.60;89.30;;;;;;5013697;28;20429;-79
2021/11/01 03:43:07;;;;;;;6.53;1.15;;;9.50;89.90;;;;;;4995468;28;20492;-80
2021/11/01 03:45:37;;;;;;;8.60;1.30;;;9.50;89.30;;;;;;5013009;28;20381;-79
2021/11/01 03:48:06;;;;;;;7.85;1.17;;;9.50;89.30;;;;;;5013493;28;20389;-79
2021/11/01 03:50:39;;;;;;;4.50;1.20;;;9.50;89.20;;;;;;5013474;28;20385;-79
2021/11/01 03:53:06;;;;;;;7.30;1.35;;;9.60;88.90;;;;;;5013382;28;20393;-79
2021/11/01 03:55:32;;;;;;;11.48;1.52;;;9.70;88.90;;;;;;5012997;28;20769;-79
2021/11/01 03:57:58;;;;;;;10.53;2.50;;;9.50;89.00;;;;;;5013289;28;20394;-80
2021/11/01 04:00:27;;;;;;;9.48;1.27;;;9.60;89.00;;;;;;4995302;28;20394;-79
2021/11/01 04:02:53;;;;;;;15.30;1.42;;;9.60;89.20;;;;;;5013346;28;20395;-80
2021/11/01 04:05:19;;;;;;;7.90;1.30;;;9.60;89.40;;;;;;4995129;28;20385;-79
2021/11/01 04:07:45;;;;;;;6.72;1.48;;;9.60;89.10;;;;;;4995632;28;20857;-79
2021/11/01 04:10:11;;;;;;;8.13;1.27;;;9.60;89.30;;;;;;5012725;28;20420;-79
2021/11/01 04:12:37;;;;;;;6.25;1.25;;;9.60;88.80;;;;;;5012887;28;20381;-79
2021/11/01 04:15:09;;;;;;;5.97;1.20;;;9.70;89.30;;;;;;5012664;28;20381;-79
2021/11/01 04:17:46;;;;;;;8.93;1.40;;;9.60;89.10;;;;;;5012814;28;20427;-79
2021/11/01 04:22:49;;;;;;;6.27;1.33;;;9.60;89.40;;;;;;5012702;28;20393;-78
2021/11/01 04:25:16;;;;;;;4.40;1.13;;;9.60;89.50;;;;;;5012916;28;20877;-79
2021/11/01 04:27:42;;;;;;;7.35;1.30;;;9.60;89.30;;;;;;5012027;28;20421;-79
2021/11/01 04:30:09;;;;;;;5.30;1.23;;;9.60;89.40;;;;;;5012574;28;20389;-79
2021/11/01 04:32:37;;;;;;;7.47;1.38;;;9.60;89.40;;;;;;5012094;28;20404;-78
2021/11/01 04:35:10;;;;;;;6.18;1.42;;;9.50;89.70;;;;;;5012211;28;20862;-78
2021/11/01 04:37:36;;;;;;;2.65;1.20;;;9.60;89.60;;;;;;5012586;28;20389;-79
2021/11/01 04:53:24;;;;;;;6.80;1.50;;;9.60;89.50;;;;;;5011763;28;20434;-79
2021/11/01 04:55:50;;;;;;;7.32;1.30;;;9.50;89.60;;;;;;5012347;28;20381;-79
2021/11/01 04:58:16;;;;;;;13.60;1.77;;;9.50;89.60;;;;;;5011847;28;20389;-78
2021/11/01 05:00:44;;;;;;;15.75;1.80;;;9.60;89.30;;;;;;5012591;28;20439;-78
2021/11/01 05:05:41;;;;;;;9.53;1.30;;;9.40;89.50;;;;;;5012142;28;20388;-78
2021/11/01 05:08:06;;;;;;;5.23;1.10;;;9.40;89.60;;;;;;4993500;28;20454;-79
2021/11/01 05:10:39;;;;;;;3.90;1.30;;;9.60;88.90;;;;;;4994540;28;20392;-78
2021/11/01 05:13:29;;;;;;;7.28;1.58;;;9.60;88.70;;;;;;4994011;28;20404;-79
2021/11/01 05:18:33;;;;;;;7.63;1.10;;;9.50;89.20;;;;;;5011843;28;20393;-79
2021/11/01 05:21:34;;;;;;;4.75;1.00;;;9.50;89.40;;;;;;5010408;28;20389;-79
2021/11/01 05:23:54;;;;;;;7.25;1.08;;;9.50;89.10;;;;;;5009371;28;20943;-80
2021/11/01 05:28:59;;;;;;;5.35;1.25;;;9.60;88.80;;;;;;5011313;28;20487;-79
2021/11/01 05:31:26;;;;;;;8.77;1.10;;;9.50;89.20;;;;;;5011872;28;20477;-80
2021/11/01 05:36:26;;;;;;;11.00;1.80;;;9.40;89.20;;;;;;5011792;28;20397;-79
2021/11/01 05:38:52;;;;;;;12.23;1.58;;;9.40;89.30;;;;;;4993511;28;20397;-79
2021/11/01 05:41:18;;;;;;;8.30;1.00;;;9.40;89.20;;;;;;5011632;28;20391;-79
2021/11/01 05:43:44;;;;;;;5.15;1.33;;;9.40;89.10;;;;;;5001955;28;20473;-79
2021/11/01 05:46:09;;;;;;;6.27;1.17;;;9.40;88.90;;;;;;5030383;28;20887;-78
2021/11/01 05:48:36;;;;;;;3.97;0.97;;;9.40;89.10;;;;;;5031063;28;20414;-79
2021/11/01 05:51:02;;;;;;;4.28;1.35;;;9.40;89.20;;;;;;5031145;28;20409;-78
2021/11/01 05:53:34;;;;;;;5.13;1.40;;;9.40;89.10;;;;;;5030688;28;20381;-78
2021/11/01 05:56:15;;;;;;;10.50;1.02;;;9.40;88.80;;;;;;5030748;28;20397;-80
2021/11/01 05:59:38;;;;;;;9.40;1.05;;;9.40;89.00;;;;;;5031241;28;20470;-79
2021/11/01 06:04:12;;;;;;;6.43;0.90;;;9.40;88.90;;;;;;5031221;28;20375;-81
2021/11/01 06:14:31;;;;;;;3.30;0.68;;;9.40;87.90;;;;;;5030952;28;20414;-80
2021/11/01 06:16:58;;;;;;;5.17;1.20;;;9.40;87.90;;;;;;5030482;28;20813;-81
2021/11/01 06:19:24;;;;;;;4.57;1.13;;;9.40;88.20;;;;;;5030877;28;20387;-82
2021/11/01 06:21:50;;;;;;;3.40;0.90;;;9.40;88.00;;;;;;5030941;28;20849;-82
2021/11/01 06:26:50;;;;;;;4.72;1.08;;;9.40;88.20;;;;;;5030919;28;20414;-82
2021/11/01 06:29:19;;;;;;;7.13;1.00;;;9.40;88.10;;;;;;5012940;28;20919;-81
2021/11/01 06:31:56;;;;;;;6.97;1.05;;;9.40;87.90;;;;;;5030935;28;20383;-80
2021/11/01 06:34:36;;;;;;;4.10;0.93;;;9.40;87.60;;;;;;5030768;28;20410;-82
2021/11/01 06:40:26;;;;;;;4.22;0.90;;;9.40;87.80;;;;;;5029764;28;20378;-81
2021/11/01 06:54:16;;;;;;;7.60;0.90;;;9.20;87.90;;;;;;5030575;28;20857;-80
2021/11/01 06:56:43;;;;;;;8.15;1.02;;;9.30;87.50;;;;;;5029347;28;20395;-80
2021/11/01 07:15:50;;;;;;;4.30;0.70;;;9.20;87.20;;;;;;5004976;28;20447;-79
2021/11/01 07:20:53;;;;;;;7.25;1.10;;;9.30;86.80;;;;;;5033727;28;20379;-80
2021/11/01 07:30:07;;;;;;;8.07;1.05;;;9.40;85.90;;;;;;5033062;28;20418;-79
2021/11/01 08:37:36;;;;;;;12.25;1.50;;;10.40;81.30;;;;;;5012665;28;20420;-79
2021/11/01 08:40:25;;;;;;;7.53;1.00;;;10.70;81.00;;;;;;5012379;28;20393;-79
2021/11/01 08:43:20;;;;;;;3.95;0.85;;;10.80;80.50;;;;;;4994714;28;20926;-79
2021/11/01 08:48:32;;;;;;;5.47;1.30;;;10.70;80.40;;;;;;5012184;28;20535;-77
2021/11/01 09:07:09;;;;;;;7.57;0.87;;;10.90;80.90;;;;;;5011297;28;20442;-79
2021/11/01 09:20:59;;;;;;;7.97;1.20;;;10.90;80.20;;;;;;5008995;28;20434;-80
2021/11/01 09:26:56;;;;;;;6.57;1.33;;;11.00;80.40;;;;;;5030772;28;20464;-80
2021/11/01 09:28:57;;;;;;;4.60;0.90;;;11.10;80.50;;;;;;4994157;28;20458;-79
2021/11/01 09:36:55;;;;;;;8.70;1.65;;;11.40;79.10;;;;;;5030105;28;20394;-79
2021/11/01 09:42:05;;;;;;;10.55;1.33;;;11.50;78.90;;;;;;5030568;28;20445;-79
2021/11/01 09:44:32;;;;;;;3.00;0.98;;;11.70;79.90;;;;;;5030483;28;20390;-78
2021/11/01 09:47:02;;;;;;;3.65;0.82;;;11.60;78.50;;;;;;5029743;28;20411;-80
2021/11/01 09:49:28;;;;;;;7.20;1.10;;;11.50;78.30;;;;;;5030483;28;20379;-79
2021/11/01 09:51:57;;;;;;;5.13;1.42;;;11.60;78.30;;;;;;5012417;28;20403;-80
2021/11/01 09:54:25;;;;;;;4.28;1.00;;;11.70;77.40;;;;;;5013052;28;20462;-80
2021/11/01 09:56:59;;;;;;;7.72;1.13;;;11.50;77.60;;;;;;5030322;28;20387;-80
2021/11/01 09:59:34;;;;;;;12.95;1.15;;;11.40;78.60;;;;;;5030015;28;20386;-80
2021/11/01 10:02:00;;;;;;;6.88;1.27;;;11.50;78.40;;;;;;5030604;28;20383;-80
2021/11/01 10:04:29;;;;;;;8.87;1.37;;;11.60;78.60;;;;;;5030090;28;20380;-78
2021/11/01 10:07:22;;;;;;;7.63;1.00;;;11.50;78.50;;;;;;5030089;28;20449;-80
2021/11/01 10:09:50;;;;;;;5.72;0.95;;;11.70;77.40;;;;;;5029935;28;20470;-79
2021/11/01 10:12:32;;;;;;;4.45;1.05;;;11.60;77.70;;;;;;5029815;28;20422;-80
2021/11/01 10:17:33;;;;;;;4.55;1.00;;;11.90;76.60;;;;;;5030873;28;20390;-80
2021/11/01 10:17:58;;;;;;;4.93;1.08;;;11.80;77.90;;;;;;5030251;28;20798;-80
2021/11/01 10:20:25;;;;;;;5.15;0.90;;;11.50;76.80;;;;;;5028868;28;20382;-81
2021/11/01 10:22:51;;;;;;;4.88;1.20;;;11.40;76.90;;;;;;5011983;28;20387;-80
2021/11/01 10:25:19;;;;;;;8.37;1.50;;;11.40;77.10;;;;;;5029544;28;20390;-80
2021/11/01 10:27:51;;;;;;;4.15;0.80;;;11.40;77.50;;;;;;5029626;28;20410;-82
2021/11/01 10:30:22;;;;;;;5.75;1.00;;;11.40;76.50;;;;;;5029858;28;20784;-81
2021/11/01 10:32:50;;;;;;;5.73;1.03;;;11.40;77.40;;;;;;5025385;28;20466;-80
2021/11/01 10:35:37;;;;;;;5.03;0.93;;;11.30;77.40;;;;;;4999259;28;20401;-81
2021/11/01 10:41:03;;;;;;;5.85;1.30;;;11.30;78.10;;;;;;5013782;28;20392;-82
2021/11/01 11:11:44;;;;;;;2.67;1.00;;;12.80;72.30;;;;;;5033083;28;20922;-80
2021/11/01 11:14:20;;;;;;;6.50;1.40;;;12.90;69.90;;;;;;5033244;28;20414;-80
2021/11/01 11:19:33;;;;;;;5.27;0.87;;;13.10;68.90;;;;;;5033324;28;20387;-81
2021/11/01 11:22:30;;;;;;;2.60;0.77;;;13.00;69.20;;;;;;5014806;28;20414;-81
2021/11/01 11:28:04;;;;;;;4.53;0.70;;;12.90;68.40;;;;;;5012824;28;20532;-81
2021/11/01 11:39:17;;;;;;;4.18;1.00;;;13.00;66.90;;;;;;5012188;28;20386;-82
2021/11/01 11:47:39;;;;;;;5.10;1.10;;;13.10;66.30;;;;;;5032470;28;20406;-79
2021/11/01 11:50:32;;;;;;;3.15;0.80;;;12.80;67.20;;;;;;5032352;28;20503;-79
2021/11/01 11:53:27;;;;;;;6.18;0.70;;;12.80;68.10;;;;;;5020807;28;20403;-80
2021/11/01 11:56:10;;;;;;;4.07;0.68;;;12.90;64.40;;;;;;5002350;28;20882;-78
2021/11/01 11:58:39;;;;;;;1.90;0.60;;;12.90;63.40;;;;;;5023023;28;20765;-79
2021/11/01 12:01:27;;;;;;;1.52;0.60;;;12.90;64.30;;;;;;5023345;28;20392;-80
2021/11/01 12:03:55;;;;;;;2.85;0.50;;;12.80;63.20;;;;;;5002472;28;20399;-80
2021/11/01 12:06:23;;;;;;;3.37;0.90;;;12.80;63.70;;;;;;5032001;28;20418;-79
2021/11/01 12:08:56;;;;;;;3.38;0.90;;;12.70;63.10;;;;;;5030917;28;20395;-80
2021/11/01 12:14:16;;;;;;;4.72;0.57;;;12.60;64.20;;;;;;5031737;28;20390;-80
2021/11/01 12:19:46;;;;;;;3.17;0.68;;;12.90;64.80;;;;;;4997783;28;20450;-80
2021/11/01 12:22:25;;;;;;;4.90;0.65;;;13.00;62.90;;;;;;5013971;28;20415;-81
2021/11/01 12:24:51;;;;;;;5.65;0.70;;;12.90;63.70;;;;;;5031696;28;20438;-80
2021/11/01 12:27:18;;;;;;;3.22;0.68;;;12.80;63.70;;;;;;5031729;28;20443;-79
2021/11/01 12:29:44;;;;;;;1.00;0.50;;;13.00;63.80;;;;;;5031316;28;20411;-81
2021/11/01 12:32:13;;;;;;;1.20;0.50;;;13.40;63.50;;;;;;5013673;28;20898;-81
2021/11/01 12:34:59;;;;;;;2.80;0.63;;;13.50;61.80;;;;;;5030253;28;20975;-82
2021/11/01 12:37:41;;;;;;;4.13;0.90;;;13.50;61.10;;;;;;5030515;28;20399;-80
2021/11/01 12:42:49;;;;;;;5.20;0.70;;;13.20;60.60;;;;;;5032115;28;20706;-82
2021/11/01 12:48:17;;;;;;;3.47;0.93;;;13.50;62.30;;;;;;5031985;28;20463;-78
2021/11/01 12:59:34;;;;;;;2.00;0.60;;;13.30;60.00;;;;;;5031181;28;20462;-79
2021/11/01 13:01:59;;;;;;;3.13;0.70;;;13.10;61.40;;;;;;5022745;28;20543;-80
2021/11/01 13:04:35;;;;;;;5.43;0.80;;;13.30;60.70;;;;;;5011132;28;20384;-80
2021/11/01 13:07:23;;;;;;;3.40;0.70;;;13.40;61.60;;;;;;5012654;28;20494;-79
2021/11/01 13:09:53;;;;;;;3.35;0.77;;;13.50;60.90;;;;;;5011042;28;20468;-78
2021/11/01 13:14:57;;;;;;;3.00;0.90;;;13.00;62.30;;;;;;5010741;28;20404;-80
2021/11/01 13:20:20;;;;;;;2.20;0.43;;;13.30;61.00;;;;;;5010391;28;20401;-80
2021/11/01 13:22:47;;;;;;;2.53;0.70;;;13.40;62.20;;;;;;4993141;28;20384;-79
2021/11/01 13:25:26;;;;;;;0.97;0.50;;;13.20;61.50;;;;;;5011376;28;20388;-78
2021/11/01 13:38:31;;;;;;;4.45;0.70;;;12.90;62.90;;;;;;5011810;28;20866;-81
2021/11/01 13:40:56;;;;;;;3.15;0.80;;;12.90;63.30;;;;;;5011491;28;20391;-79
2021/11/01 13:43:29;;;;;;;7.35;0.85;;;12.80;64.50;;;;;;5011853;28;20377;-80
2021/11/01 13:46:01;;;;;;;4.93;0.57;;;12.90;62.90;;;;;;5011356;28;20971;-81
2021/11/01 13:48:30;;;;;;;3.90;0.70;;;12.90;61.80;;;;;;4993725;28;20451;-80
2021/11/01 13:51:14;;;;;;;5.63;1.77;;;12.90;62.20;;;;;;5011314;28;20902;-81
2021/11/01 13:56:42;;;;;;;3.90;0.80;;;12.90;64.40;;;;;;5011909;28;20716;-81
2021/11/01 14:02:17;;;;;;;5.07;1.42;;;12.90;62.90;;;;;;5011253;28;20472;-81
2021/11/01 14:29:15;;;;;;;3.53;0.70;;;12.50;64.60;;;;;;5015136;28;20931;-81
2021/11/01 14:55:12;;;;;;;5.32;1.17;;;12.50;64.40;;;;;;5015191;28;20814;-79
2021/11/01 15:12:40;;;;;;;6.22;0.75;;;12.10;64.30;;;;;;5014495;28;20513;-81
2021/11/01 15:20:04;;;;;;;3.20;0.60;;;11.90;65.30;;;;;;5013678;28;20725;-80
2021/11/01 15:25:41;;;;;;;5.50;0.80;;;11.90;66.40;;;;;;5013730;28;20400;-80
2021/11/01 15:28:25;;;;;;;2.28;0.63;;;11.80;67.00;;;;;;5013195;28;20431;-80
2021/11/01 16:19:39;;;;;;;2.72;0.75;;;11.40;73.40;;;;;;5013177;28;20468;-79
2021/11/01 16:22:05;;;;;;;3.80;1.13;;;11.30;72.70;;;;;;5012783;28;20388;-80
2021/11/01 16:24:33;;;;;;;2.67;1.10;;;11.30;74.50;;;;;;5012987;28;20411;-80
2021/11/01 16:27:00;;;;;;;3.92;1.10;;;11.30;74.90;;;;;;5012754;28;20953;-81
2021/11/01 16:29:37;;;;;;;2.78;0.98;;;11.20;75.00;;;;;;5012758;28;20439;-81
2021/11/01 16:32:07;;;;;;;3.00;1.03;;;11.20;75.60;;;;;;4993263;28;20466;-81
2021/11/01 16:34:35;;;;;;;3.60;1.20;;;11.10;75.80;;;;;;5012590;28;20730;-81
2021/11/01 16:39:48;;;;;;;3.38;1.30;;;11.00;76.40;;;;;;5012616;28;20388;-82
2021/11/01 16:42:28;;;;;;;4.80;1.35;;;10.90;77.10;;;;;;5011601;28;20393;-83
2021/11/01 16:44:56;;;;;;;2.67;1.10;;;10.90;77.00;;;;;;5011294;28;20519;-82
2021/11/01 16:47:22;;;;;;;6.50;1.13;;;10.90;77.30;;;;;;4995029;28;20417;-82
2021/11/01 16:49:49;;;;;;;5.27;1.10;;;10.80;77.80;;;;;;4996108;28;20399;-82
2021/11/01 16:52:18;;;;;;;5.90;1.15;;;10.80;78.00;;;;;;5021396;28;20402;-81
2021/11/01 16:54:49;;;;;;;4.03;1.50;;;10.70;77.90;;;;;;5008514;28;20965;-80
2021/11/01 16:58:02;;;;;;;6.80;1.60;;;10.70;78.30;;;;;;5016256;28;20389;-81
2021/11/01 17:03:08;;;;;;;6.35;1.27;;;10.60;78.00;;;;;;5012161;28;20380;-81
2021/11/01 17:05:51;;;;;;;8.27;2.03;;;10.60;78.10;;;;;;5012432;28;20777;-81
2021/11/01 17:08:45;;;;;;;7.07;1.40;;;10.50;78.20;;;;;;5008879;28;20425;-81
2021/11/01 17:30:17;;;;;;;6.33;1.97;;;10.30;79.00;;;;;;5011871;28;20397;-81
2021/11/01 18:24:26;;;;;;;3.88;1.40;;;10.10;79.60;;;;;;5009346;28;20380;-82
2021/11/01 18:40:25;;;;;;;5.93;1.73;;;9.70;76.30;;;;;;5010600;28;20380;-82
2021/11/01 18:43:14;;;;;;;5.55;1.90;;;9.70;76.50;;;;;;4992045;28;20392;-82
2021/11/01 18:46:11;;;;;;;4.65;1.58;;;9.70;77.10;;;;;;4992221;28;20785;-83
2021/11/01 18:51:33;;;;;;;3.03;1.45;;;9.70;76.50;;;;;;5008496;28;20772;-83
2021/11/01 18:54:23;;;;;;;4.70;1.30;;;9.60;77.00;;;;;;4995876;28;20393;-82
2021/11/01 18:56:52;;;;;;;6.20;1.20;;;9.60;77.00;;;;;;5013457;28;20855;-82
2021/11/01 18:59:22;;;;;;;6.22;1.33;;;9.60;76.20;;;;;;5013343;28;20760;-83
2021/11/01 19:01:50;;;;;;;7.28;1.38;;;9.80;75.80;;;;;;5013785;28;20377;-82
2021/11/01 19:04:28;;;;;;;7.97;1.58;;;9.70;76.40;;;;;;5013396;28;20381;-82
2021/11/01 19:07:05;;;;;;;5.20;1.48;;;9.70;76.40;;;;;;4996067;28;20432;-82
2021/11/01 20:05:22;;;;;;;4.32;1.08;;;9.80;76.70;;;;;;5012012;28;20427;-84
2021/11/01 20:11:10;;;;;;;6.25;1.10;;;9.70;77.10;;;;;;5012520;28;20416;-81
2021/11/01 20:13:54;;;;;;;3.40;1.15;;;9.70;77.10;;;;;;5012374;28;20388;-82
2021/11/01 21:26:50;;;;;;;6.32;1.23;;;9.00;80.90;;;;;;5030888;28;20794;-82
2021/11/01 21:29:16;;;;;;;5.90;1.20;;;9.10;80.80;;;;;;5012386;28;20461;-83
2021/11/01 21:31:41;;;;;;;6.33;1.27;;;9.10;80.70;;;;;;5012859;28;20399;-82
2021/11/01 21:34:12;;;;;;;2.92;1.27;;;9.00;81.00;;;;;;5030347;28;20403;-82
2021/11/01 21:36:38;;;;;;;3.55;0.95;;;9.10;81.20;;;;;;5030049;28;20905;-82
2021/11/01 21:39:04;;;;;;;5.47;1.20;;;9.00;81.60;;;;;;5013096;28;20387;-83
2021/11/01 21:41:29;;;;;;;6.43;1.25;;;9.00;81.60;;;;;;5030622;28;20421;-82
2021/11/01 21:43:55;;;;;;;2.80;1.00;;;9.10;81.70;;;;;;5012906;28;20403;-83
2021/11/01 21:46:21;;;;;;;2.75;1.02;;;8.90;81.90;;;;;;5012400;28;20431;-82
2021/11/01 21:48:46;;;;;;;4.80;1.08;;;8.90;81.80;;;;;;5012848;28;20852;-83
2021/11/01 21:51:16;;;;;;;5.50;1.63;;;9.00;81.80;;;;;;5030272;28;20386;-83
2021/11/01 21:53:48;;;;;;;4.15;1.30;;;8.90;82.10;;;;;;5012890;28;20403;-83
2021/11/01 21:56:15;;;;;;;3.43;1.27;;;8.90;82.00;;;;;;5030340;28;20372;-82
2021/11/01 22:09:56;;;;;;;2.88;1.25;;;8.80;82.60;;;;;;5030371;28;20450;-83
2021/11/01 22:09:58;;;;;;;4.60;1.50;;;8.80;82.60;;;;;;5029723;28;20386;-82
2021/11/01 22:20:43;;;;;;;7.50;1.70;;;8.80;82.70;;;;;;4989464;28;20848;-83
2021/11/01 22:23:16;;;;;;;3.53;1.20;;;8.80;82.90;;;;;;5012345;28;20902;-83
2021/11/01 22:34:11;;;;;;;6.45;1.00;;;8.70;83.30;;;;;;5034478;28;20432;-82
2021/11/01 22:39:10;;;;;;;3.58;1.13;;;8.70;83.40;;;;;;5035013;28;20958;-83
2021/11/01 22:44:36;;;;;;;4.78;0.95;;;8.80;83.20;;;;;;5034577;28;20383;-82
2021/11/01 22:57:59;;;;;;;6.37;1.60;;;8.80;83.70;;;;;;5034289;28;20708;-82
2021/11/01 23:00:51;;;;;;;6.97;1.85;;;8.90;83.50;;;;;;5034284;28;20495;-83
2021/11/01 23:33:35;;;;;;;2.85;1.30;;;8.40;85.00;;;;;;5033628;28;20390;-83
2021/11/01 23:36:01;;;;;;;5.32;1.05;;;8.30;85.30;;;;;;5016095;28;20387;-83
2021/11/01 23:38:27;;;;;;;6.67;1.10;;;8.20;85.60;;;;;;5014877;28;20383;-82
2021/11/01 23:40:52;;;;;;;7.07;1.45;;;8.20;85.60;;;;;;5033597;28;20379;-83
2021/11/01 23:43:19;;;;;;;5.90;1.23;;;8.10;85.70;;;;;;5015514;28;20713;-83
2021/11/01 23:45:46;;;;;;;5.28;1.20;;;8.10;85.40;;;;;;5015848;28;20727;-82
2021/11/01 23:48:12;;;;;;;7.18;1.10;;;8.00;85.80;;;;;;5033045;28;20403;-83
2021/11/01 23:50:39;;;;;;;4.47;1.10;;;8.10;85.60;;;;;;5015792;28;20485;-82
2021/11/01 23:55:51;;;;;;;2.40;0.95;;;7.90;85.50;;;;;;5002143;28;20860;-83
2021/11/01 23:58:16;;;;;;;2.00;0.90;;;8.00;85.60;;;;;;5015527;28;20448;-83
